sensor_id;sensor_type;location;lat;lon;timestamp;P1;durP1;ratioP1;P2;durP2;ratioP2
15256;SDS011;7731;50.720;6.912;2023-02-15T00:01:04;37.03;;;23.07;;
15256;SDS011;7731;50.720;6.912;2023-02-15T00:03:38;39.97;;;22.70;;
15256;SDS011;7731;50.720;6.912;2023-02-15T00:06:08;35.77;;;22.07;;
15256;SDS011;7731;50.720;6.912;2023-02-15T00:08:38;34.83;;;20.87;;
15256;SDS011;7731;50.720;6.912;2023-02-15T00:11:09;35.13;;;20.37;;
15256;SDS011;7731;50.720;6.912;2023-02-15T00:13:42;33.67;;;21.17;;
15256;SDS011;7731;50.720;6.912;2023-02-15T00:16:14;31.33;;;20.27;;
15256;SDS011;7731;50.720;6.912;2023-02-15T00:18:47;36.50;;;22.63;;
15256;SDS011;7731;50.720;6.912;2023-02-15T00:21:20;35.40;;;21.43;;
15256;SDS011;7731;50.720;6.912;2023-02-15T00:23:50;37.87;;;22.17;;
15256;SDS011;7731;50.720;6.912;2023-02-15T00:26:21;36.47;;;21.97;;
15256;SDS011;7731;50.720;6.912;2023-02-15T00:28:51;33.93;;;21.53;;
15256;SDS011;7731;50.720;6.912;2023-02-15T00:31:21;36.13;;;20.40;;
15256;SDS011;7731;50.720;6.912;2023-02-15T00:33:54;36.10;;;21.60;;
15256;SDS011;7731;50.720;6.912;2023-02-15T00:36:24;41.57;;;22.23;;
15256;SDS011;7731;50.720;6.912;2023-02-15T00:38:54;70.57;;;31.30;;
15256;SDS011;7731;50.720;6.912;2023-02-15T00:41:25;46.13;;;25.23;;
15256;SDS011;7731;50.720;6.912;2023-02-15T00:43:55;54.27;;;26.87;;
15256;SDS011;7731;50.720;6.912;2023-02-15T00:46:25;36.03;;;21.10;;
15256;SDS011;7731;50.720;6.912;2023-02-15T00:49:00;31.87;;;20.50;;
15256;SDS011;7731;50.720;6.912;2023-02-15T00:51:31;33.07;;;20.20;;
15256;SDS011;7731;50.720;6.912;2023-02-15T00:54:02;35.13;;;21.87;;
15256;SDS011;7731;50.720;6.912;2023-02-15T00:56:32;35.17;;;20.07;;
15256;SDS011;7731;50.720;6.912;2023-02-15T00:59:02;36.23;;;21.13;;
15256;SDS011;7731;50.720;6.912;2023-02-15T01:01:34;35.07;;;20.73;;
15256;SDS011;7731;50.720;6.912;2023-02-15T01:04:13;31.23;;;19.03;;
15256;SDS011;7731;50.720;6.912;2023-02-15T01:06:43;33.00;;;20.23;;
15256;SDS011;7731;50.720;6.912;2023-02-15T01:09:13;37.33;;;20.87;;
15256;SDS011;7731;50.720;6.912;2023-02-15T01:11:44;35.00;;;19.37;;
15256;SDS011;7731;50.720;6.912;2023-02-15T01:14:14;31.70;;;19.23;;
15256;SDS011;7731;50.720;6.912;2023-02-15T01:16:44;33.47;;;20.07;;
15256;SDS011;7731;50.720;6.912;2023-02-15T01:19:16;32.47;;;20.00;;
15256;SDS011;7731;50.720;6.912;2023-02-15T01:21:47;31.40;;;19.57;;
15256;SDS011;7731;50.720;6.912;2023-02-15T01:24:17;29.10;;;18.33;;
15256;SDS011;7731;50.720;6.912;2023-02-15T01:26:47;29.30;;;18.93;;
15256;SDS011;7731;50.720;6.912;2023-02-15T01:29:17;31.73;;;18.63;;
15256;SDS011;7731;50.720;6.912;2023-02-15T01:31:48;30.73;;;18.40;;
15256;SDS011;7731;50.720;6.912;2023-02-15T01:34:21;35.20;;;21.10;;
15256;SDS011;7731;50.720;6.912;2023-02-15T01:36:51;34.93;;;20.53;;
15256;SDS011;7731;50.720;6.912;2023-02-15T01:39:22;33.40;;;20.17;;
15256;SDS011;7731;50.720;6.912;2023-02-15T01:41:54;37.87;;;21.67;;
15256;SDS011;7731;50.720;6.912;2023-02-15T01:47:20;34.40;;;19.57;;
15256;SDS011;7731;50.720;6.912;2023-02-15T01:50:01;34.77;;;20.40;;
15256;SDS011;7731;50.720;6.912;2023-02-15T01:52:40;32.57;;;19.47;;
15256;SDS011;7731;50.720;6.912;2023-02-15T01:55:18;31.73;;;20.23;;
15256;SDS011;7731;50.720;6.912;2023-02-15T01:57:50;33.60;;;20.80;;
15256;SDS011;7731;50.720;6.912;2023-02-15T02:00:21;32.60;;;19.87;;
15256;SDS011;7731;50.720;6.912;2023-02-15T02:02:53;34.70;;;19.53;;
15256;SDS011;7731;50.720;6.912;2023-02-15T02:05:28;34.60;;;20.20;;
15256;SDS011;7731;50.720;6.912;2023-02-15T02:07:59;35.30;;;19.90;;
15256;SDS011;7731;50.720;6.912;2023-02-15T02:10:32;32.00;;;20.07;;
15256;SDS011;7731;50.720;6.912;2023-02-15T02:13:03;34.40;;;20.20;;
15256;SDS011;7731;50.720;6.912;2023-02-15T02:15:39;32.47;;;19.93;;
15256;SDS011;7731;50.720;6.912;2023-02-15T02:18:26;35.07;;;24.07;;
15256;SDS011;7731;50.720;6.912;2023-02-15T02:21:26;32.47;;;21.03;;
15256;SDS011;7731;50.720;6.912;2023-02-15T02:24:40;40.20;;;26.80;;
15256;SDS011;7731;50.720;6.912;2023-02-15T02:27:55;36.67;;;26.53;;
15256;SDS011;7731;50.720;6.912;2023-02-15T02:30:52;39.67;;;27.17;;
15256;SDS011;7731;50.720;6.912;2023-02-15T02:33:57;39.60;;;27.77;;
15256;SDS011;7731;50.720;6.912;2023-02-15T02:36:40;39.03;;;26.67;;
15256;SDS011;7731;50.720;6.912;2023-02-15T02:39:30;35.27;;;25.20;;
15256;SDS011;7731;50.720;6.912;2023-02-15T02:42:12;38.00;;;25.67;;
15256;SDS011;7731;50.720;6.912;2023-02-15T02:44:56;36.03;;;25.27;;
15256;SDS011;7731;50.720;6.912;2023-02-15T02:47:37;35.30;;;26.27;;
15256;SDS011;7731;50.720;6.912;2023-02-15T02:50:21;37.17;;;26.00;;
15256;SDS011;7731;50.720;6.912;2023-02-15T02:52:55;37.50;;;26.43;;
15256;SDS011;7731;50.720;6.912;2023-02-15T02:55:29;34.43;;;23.87;;
15256;SDS011;7731;50.720;6.912;2023-02-15T02:58:06;33.80;;;20.30;;
15256;SDS011;7731;50.720;6.912;2023-02-15T03:00:47;31.50;;;19.43;;
15256;SDS011;7731;50.720;6.912;2023-02-15T03:03:24;30.50;;;19.10;;
15256;SDS011;7731;50.720;6.912;2023-02-15T03:06:04;33.10;;;20.13;;
15256;SDS011;7731;50.720;6.912;2023-02-15T03:08:40;34.53;;;19.73;;
15256;SDS011;7731;50.720;6.912;2023-02-15T03:11:17;32.40;;;20.20;;
15256;SDS011;7731;50.720;6.912;2023-02-15T03:13:47;36.93;;;20.50;;
15256;SDS011;7731;50.720;6.912;2023-02-15T03:16:18;32.67;;;20.23;;
15256;SDS011;7731;50.720;6.912;2023-02-15T03:18:57;35.23;;;20.53;;
15256;SDS011;7731;50.720;6.912;2023-02-15T03:21:37;32.53;;;19.63;;
15256;SDS011;7731;50.720;6.912;2023-02-15T03:24:31;30.57;;;18.83;;
15256;SDS011;7731;50.720;6.912;2023-02-15T03:27:26;33.53;;;22.33;;
15256;SDS011;7731;50.720;6.912;2023-02-15T03:30:27;36.37;;;25.67;;
15256;SDS011;7731;50.720;6.912;2023-02-15T03:33:20;35.07;;;24.40;;
15256;SDS011;7731;50.720;6.912;2023-02-15T03:36:14;35.27;;;24.50;;
15256;SDS011;7731;50.720;6.912;2023-02-15T03:38:55;33.80;;;24.47;;
15256;SDS011;7731;50.720;6.912;2023-02-15T03:41:36;32.07;;;23.17;;
15256;SDS011;7731;50.720;6.912;2023-02-15T03:44:18;32.13;;;18.87;;
15256;SDS011;7731;50.720;6.912;2023-02-15T03:46:58;35.20;;;19.33;;
15256;SDS011;7731;50.720;6.912;2023-02-15T03:49:37;27.23;;;17.63;;
15256;SDS011;7731;50.720;6.912;2023-02-15T03:52:15;28.67;;;17.80;;
15256;SDS011;7731;50.720;6.912;2023-02-15T03:54:52;33.40;;;18.10;;
15256;SDS011;7731;50.720;6.912;2023-02-15T03:57:23;29.43;;;18.43;;
15256;SDS011;7731;50.720;6.912;2023-02-15T04:00:11;28.83;;;17.73;;
15256;SDS011;7731;50.720;6.912;2023-02-15T04:03:09;33.63;;;20.93;;
15256;SDS011;7731;50.720;6.912;2023-02-15T04:05:54;33.57;;;19.90;;
15256;SDS011;7731;50.720;6.912;2023-02-15T04:08:24;27.70;;;17.70;;
15256;SDS011;7731;50.720;6.912;2023-02-15T04:11:17;33.27;;;18.30;;
15256;SDS011;7731;50.720;6.912;2023-02-15T04:13:45;30.03;;;18.33;;
15256;SDS011;7731;50.720;6.912;2023-02-15T04:16:23;29.20;;;17.23;;
15256;SDS011;7731;50.720;6.912;2023-02-15T04:18:51;31.87;;;18.43;;
15256;SDS011;7731;50.720;6.912;2023-02-15T04:21:34;33.13;;;19.33;;
15256;SDS011;7731;50.720;6.912;2023-02-15T04:24:16;29.10;;;18.67;;
15256;SDS011;7731;50.720;6.912;2023-02-15T04:27:03;26.80;;;17.10;;
15256;SDS011;7731;50.720;6.912;2023-02-15T04:29:34;32.37;;;17.63;;
15256;SDS011;7731;50.720;6.912;2023-02-15T04:32:04;28.97;;;17.33;;
15256;SDS011;7731;50.720;6.912;2023-02-15T04:34:34;30.13;;;16.87;;
15256;SDS011;7731;50.720;6.912;2023-02-15T04:37:04;29.77;;;17.73;;
15256;SDS011;7731;50.720;6.912;2023-02-15T04:39:35;27.90;;;17.17;;
15256;SDS011;7731;50.720;6.912;2023-02-15T04:42:07;31.57;;;18.70;;
15256;SDS011;7731;50.720;6.912;2023-02-15T04:44:37;28.67;;;17.27;;
15256;SDS011;7731;50.720;6.912;2023-02-15T04:47:08;28.87;;;18.03;;
15256;SDS011;7731;50.720;6.912;2023-02-15T04:49:38;29.07;;;16.73;;
15256;SDS011;7731;50.720;6.912;2023-02-15T04:52:09;29.57;;;17.50;;
15256;SDS011;7731;50.720;6.912;2023-02-15T04:54:40;27.63;;;17.77;;
15256;SDS011;7731;50.720;6.912;2023-02-15T04:57:13;32.83;;;18.20;;
15256;SDS011;7731;50.720;6.912;2023-02-15T04:59:43;27.53;;;16.63;;
15256;SDS011;7731;50.720;6.912;2023-02-15T05:02:13;29.70;;;17.73;;
15256;SDS011;7731;50.720;6.912;2023-02-15T05:04:43;28.63;;;18.83;;
15256;SDS011;7731;50.720;6.912;2023-02-15T05:07:13;30.00;;;17.00;;
15256;SDS011;7731;50.720;6.912;2023-02-15T05:09:44;30.13;;;17.77;;
15256;SDS011;7731;50.720;6.912;2023-02-15T05:12:16;31.20;;;18.03;;
15256;SDS011;7731;50.720;6.912;2023-02-15T05:14:46;30.83;;;17.90;;
15256;SDS011;7731;50.720;6.912;2023-02-15T05:17:17;30.60;;;17.20;;
15256;SDS011;7731;50.720;6.912;2023-02-15T05:19:47;30.70;;;17.33;;
15256;SDS011;7731;50.720;6.912;2023-02-15T05:22:17;31.43;;;17.93;;
15256;SDS011;7731;50.720;6.912;2023-02-15T05:24:47;24.60;;;16.07;;
15256;SDS011;7731;50.720;6.912;2023-02-15T05:27:32;28.97;;;17.13;;
15256;SDS011;7731;50.720;6.912;2023-02-15T05:30:15;31.47;;;18.77;;
15256;SDS011;7731;50.720;6.912;2023-02-15T05:32:45;26.50;;;16.63;;
15256;SDS011;7731;50.720;6.912;2023-02-15T05:35:15;25.80;;;17.47;;
15256;SDS011;7731;50.720;6.912;2023-02-15T05:37:46;27.93;;;15.93;;
15256;SDS011;7731;50.720;6.912;2023-02-15T05:40:16;28.37;;;16.03;;
15256;SDS011;7731;50.720;6.912;2023-02-15T05:42:49;25.13;;;15.80;;
15256;SDS011;7731;50.720;6.912;2023-02-15T05:45:19;26.97;;;16.60;;
15256;SDS011;7731;50.720;6.912;2023-02-15T05:47:50;27.60;;;16.60;;
15256;SDS011;7731;50.720;6.912;2023-02-15T05:50:20;27.97;;;18.23;;
15256;SDS011;7731;50.720;6.912;2023-02-15T05:52:50;29.70;;;20.97;;
15256;SDS011;7731;50.720;6.912;2023-02-15T05:55:20;28.90;;;20.03;;
15256;SDS011;7731;50.720;6.912;2023-02-15T05:57:53;30.33;;;20.17;;
15256;SDS011;7731;50.720;6.912;2023-02-15T06:00:23;30.53;;;17.37;;
15256;SDS011;7731;50.720;6.912;2023-02-15T06:02:54;28.33;;;17.90;;
15256;SDS011;7731;50.720;6.912;2023-02-15T06:05:24;28.33;;;16.93;;
15256;SDS011;7731;50.720;6.912;2023-02-15T06:07:54;26.90;;;16.17;;
15256;SDS011;7731;50.720;6.912;2023-02-15T06:10:24;27.40;;;15.60;;
15256;SDS011;7731;50.720;6.912;2023-02-15T06:12:57;26.83;;;16.60;;
15256;SDS011;7731;50.720;6.912;2023-02-15T06:15:29;29.60;;;17.07;;
15256;SDS011;7731;50.720;6.912;2023-02-15T06:17:59;30.53;;;17.43;;
15256;SDS011;7731;50.720;6.912;2023-02-15T06:20:30;27.53;;;19.50;;
15256;SDS011;7731;50.720;6.912;2023-02-15T06:23:00;27.03;;;16.27;;
15256;SDS011;7731;50.720;6.912;2023-02-15T06:25:30;30.37;;;18.30;;
15256;SDS011;7731;50.720;6.912;2023-02-15T06:28:05;29.70;;;17.37;;
15256;SDS011;7731;50.720;6.912;2023-02-15T06:30:36;28.23;;;19.17;;
15256;SDS011;7731;50.720;6.912;2023-02-15T06:33:06;29.10;;;16.83;;
15256;SDS011;7731;50.720;6.912;2023-02-15T06:35:36;26.63;;;16.13;;
15256;SDS011;7731;50.720;6.912;2023-02-15T06:38:07;25.43;;;15.97;;
15256;SDS011;7731;50.720;6.912;2023-02-15T06:40:37;30.13;;;16.83;;
15256;SDS011;7731;50.720;6.912;2023-02-15T06:43:10;28.33;;;17.37;;
15256;SDS011;7731;50.720;6.912;2023-02-15T06:45:40;28.53;;;17.17;;
15256;SDS011;7731;50.720;6.912;2023-02-15T06:48:11;27.07;;;15.80;;
15256;SDS011;7731;50.720;6.912;2023-02-15T06:50:44;26.33;;;15.67;;
15256;SDS011;7731;50.720;6.912;2023-02-15T06:53:15;24.50;;;16.07;;
15256;SDS011;7731;50.720;6.912;2023-02-15T06:55:45;26.23;;;15.77;;
15256;SDS011;7731;50.720;6.912;2023-02-15T06:58:20;26.80;;;20.50;;
15256;SDS011;7731;50.720;6.912;2023-02-15T07:00:51;27.07;;;16.27;;
15256;SDS011;7731;50.720;6.912;2023-02-15T07:03:26;24.30;;;15.50;;
15256;SDS011;7731;50.720;6.912;2023-02-15T07:05:57;26.87;;;15.70;;
15256;SDS011;7731;50.720;6.912;2023-02-15T07:08:32;23.70;;;14.50;;
15256;SDS011;7731;50.720;6.912;2023-02-15T07:11:03;25.43;;;15.17;;
15256;SDS011;7731;50.720;6.912;2023-02-15T07:13:50;23.47;;;14.80;;
15256;SDS011;7731;50.720;6.912;2023-02-15T07:16:20;23.53;;;14.70;;
15256;SDS011;7731;50.720;6.912;2023-02-15T07:18:50;27.30;;;15.03;;
15256;SDS011;7731;50.720;6.912;2023-02-15T07:21:20;24.70;;;15.33;;
15256;SDS011;7731;50.720;6.912;2023-02-15T07:23:51;27.30;;;15.33;;
15256;SDS011;7731;50.720;6.912;2023-02-15T07:26:21;27.17;;;15.47;;
15256;SDS011;7731;50.720;6.912;2023-02-15T07:28:54;24.87;;;15.67;;
15256;SDS011;7731;50.720;6.912;2023-02-15T07:31:24;27.97;;;16.03;;
15256;SDS011;7731;50.720;6.912;2023-02-15T07:33:54;24.93;;;14.27;;
15256;SDS011;7731;50.720;6.912;2023-02-15T07:36:24;24.20;;;15.53;;
15256;SDS011;7731;50.720;6.912;2023-02-15T07:38:54;24.60;;;15.50;;
15256;SDS011;7731;50.720;6.912;2023-02-15T07:41:25;25.73;;;15.23;;
15256;SDS011;7731;50.720;6.912;2023-02-15T07:43:57;23.30;;;14.70;;
15256;SDS011;7731;50.720;6.912;2023-02-15T07:46:28;21.93;;;13.67;;
15256;SDS011;7731;50.720;6.912;2023-02-15T07:48:58;21.60;;;13.23;;
15256;SDS011;7731;50.720;6.912;2023-02-15T07:51:28;20.90;;;13.87;;
15256;SDS011;7731;50.720;6.912;2023-02-15T07:53:58;24.60;;;14.33;;
15256;SDS011;7731;50.720;6.912;2023-02-15T07:56:28;20.60;;;12.87;;
15256;SDS011;7731;50.720;6.912;2023-02-15T07:59:03;20.30;;;12.47;;
15256;SDS011;7731;50.720;6.912;2023-02-15T08:01:37;18.53;;;12.20;;
15256;SDS011;7731;50.720;6.912;2023-02-15T08:04:08;17.83;;;12.07;;
15256;SDS011;7731;50.720;6.912;2023-02-15T08:06:41;13.80;;;10.67;;
15256;SDS011;7731;50.720;6.912;2023-02-15T08:09:11;18.27;;;11.23;;
15256;SDS011;7731;50.720;6.912;2023-02-15T08:11:41;17.40;;;12.13;;
15256;SDS011;7731;50.720;6.912;2023-02-15T08:14:14;20.90;;;12.32;;
15256;SDS011;7731;50.720;6.912;2023-02-15T08:16:49;15.82;;;13.05;;
15256;SDS011;7731;50.720;6.912;2023-02-15T08:19:21;14.93;;;12.65;;
15256;SDS011;7731;50.720;6.912;2023-02-15T08:21:55;15.07;;;12.82;;
15256;SDS011;7731;50.720;6.912;2023-02-15T08:24:28;16.70;;;13.65;;
15256;SDS011;7731;50.720;6.912;2023-02-15T08:27:00;16.40;;;14.32;;
15256;SDS011;7731;50.720;6.912;2023-02-15T08:29:35;15.40;;;13.77;;
15256;SDS011;7731;50.720;6.912;2023-02-15T08:32:09;15.25;;;13.38;;
15256;SDS011;7731;50.720;6.912;2023-02-15T08:34:41;15.45;;;13.32;;
15256;SDS011;7731;50.720;6.912;2023-02-15T08:37:12;14.73;;;12.23;;
15256;SDS011;7731;50.720;6.912;2023-02-15T08:39:42;13.95;;;12.40;;
15256;SDS011;7731;50.720;6.912;2023-02-15T08:42:12;18.05;;;14.13;;
15256;SDS011;7731;50.720;6.912;2023-02-15T08:44:45;15.77;;;13.70;;
15256;SDS011;7731;50.720;6.912;2023-02-15T08:47:17;14.60;;;12.15;;
15256;SDS011;7731;50.720;6.912;2023-02-15T08:49:47;13.57;;;12.10;;
15256;SDS011;7731;50.720;6.912;2023-02-15T08:52:19;14.38;;;12.70;;
15256;SDS011;7731;50.720;6.912;2023-02-15T08:54:49;13.90;;;12.32;;
15256;SDS011;7731;50.720;6.912;2023-02-15T08:57:20;14.13;;;11.98;;
15256;SDS011;7731;50.720;6.912;2023-02-15T08:59:53;13.23;;;11.82;;
15256;SDS011;7731;50.720;6.912;2023-02-15T09:02:23;14.80;;;12.93;;
15256;SDS011;7731;50.720;6.912;2023-02-15T09:04:53;15.10;;;13.50;;
15256;SDS011;7731;50.720;6.912;2023-02-15T09:07:23;15.75;;;12.68;;
15256;SDS011;7731;50.720;6.912;2023-02-15T09:09:54;13.40;;;12.00;;
15256;SDS011;7731;50.720;6.912;2023-02-15T09:12:24;14.10;;;12.48;;
15256;SDS011;7731;50.720;6.912;2023-02-15T09:14:57;14.50;;;12.57;;
15256;SDS011;7731;50.720;6.912;2023-02-15T09:17:27;13.82;;;12.35;;
15256;SDS011;7731;50.720;6.912;2023-02-15T09:19:57;15.80;;;12.25;;
15256;SDS011;7731;50.720;6.912;2023-02-15T09:22:27;14.65;;;12.55;;
15256;SDS011;7731;50.720;6.912;2023-02-15T09:25:00;14.25;;;11.80;;
15256;SDS011;7731;50.720;6.912;2023-02-15T09:27:31;13.30;;;11.90;;
15256;SDS011;7731;50.720;6.912;2023-02-15T09:30:07;13.85;;;12.43;;
15256;SDS011;7731;50.720;6.912;2023-02-15T09:32:48;14.65;;;13.15;;
15256;SDS011;7731;50.720;6.912;2023-02-15T09:35:20;14.80;;;12.77;;
15256;SDS011;7731;50.720;6.912;2023-02-15T09:37:51;15.07;;;12.55;;
15256;SDS011;7731;50.720;6.912;2023-02-15T09:40:21;14.00;;;12.50;;
15256;SDS011;7731;50.720;6.912;2023-02-15T09:42:55;14.48;;;11.93;;
15256;SDS011;7731;50.720;6.912;2023-02-15T09:46:16;13.27;;;11.98;;
15256;SDS011;7731;50.720;6.912;2023-02-15T09:49:07;13.48;;;12.07;;
15256;SDS011;7731;50.720;6.912;2023-02-15T09:52:04;13.80;;;12.13;;
15256;SDS011;7731;50.720;6.912;2023-02-15T09:55:00;16.65;;;11.43;;
15256;SDS011;7731;50.720;6.912;2023-02-15T09:57:51;13.73;;;12.23;;
15256;SDS011;7731;50.720;6.912;2023-02-15T10:00:36;12.45;;;11.25;;
15256;SDS011;7731;50.720;6.912;2023-02-15T10:06:25;13.00;;;11.65;;
15256;SDS011;7731;50.720;6.912;2023-02-15T10:09:13;13.70;;;11.80;;
15256;SDS011;7731;50.720;6.912;2023-02-15T10:12:05;13.60;;;12.20;;
15256;SDS011;7731;50.720;6.912;2023-02-15T10:14:56;12.38;;;11.05;;
15256;SDS011;7731;50.720;6.912;2023-02-15T10:17:51;12.77;;;11.45;;
15256;SDS011;7731;50.720;6.912;2023-02-15T10:20:52;12.63;;;11.32;;
15256;SDS011;7731;50.720;6.912;2023-02-15T10:23:40;12.80;;;11.50;;
15256;SDS011;7731;50.720;6.912;2023-02-15T10:26:30;10.68;;;9.65;;
15256;SDS011;7731;50.720;6.912;2023-02-15T10:29:12;12.43;;;11.13;;
15256;SDS011;7731;50.720;6.912;2023-02-15T10:32:02;11.38;;;10.20;;
15256;SDS011;7731;50.720;6.912;2023-02-15T10:34:50;12.18;;;10.88;;
15256;SDS011;7731;50.720;6.912;2023-02-15T10:37:37;11.80;;;10.57;;
15256;SDS011;7731;50.720;6.912;2023-02-15T10:40:32;12.00;;;10.80;;
15256;SDS011;7731;50.720;6.912;2023-02-15T10:43:23;12.57;;;11.10;;
15256;SDS011;7731;50.720;6.912;2023-02-15T10:46:31;11.90;;;10.70;;
15256;SDS011;7731;50.720;6.912;2023-02-15T10:49:58;12.88;;;11.07;;
15256;SDS011;7731;50.720;6.912;2023-02-15T10:52:59;11.77;;;10.00;;
15256;SDS011;7731;50.720;6.912;2023-02-15T10:56:11;11.43;;;9.80;;
15256;SDS011;7731;50.720;6.912;2023-02-15T10:59:05;11.63;;;10.00;;
15256;SDS011;7731;50.720;6.912;2023-02-15T11:02:10;11.32;;;10.13;;
15256;SDS011;7731;50.720;6.912;2023-02-15T11:04:55;13.55;;;11.30;;
15256;SDS011;7731;50.720;6.912;2023-02-15T11:07:47;12.25;;;10.35;;
15256;SDS011;7731;50.720;6.912;2023-02-15T11:10:28;11.48;;;10.15;;
15256;SDS011;7731;50.720;6.912;2023-02-15T11:13:05;12.02;;;10.75;;
15256;SDS011;7731;50.720;6.912;2023-02-15T11:15:43;10.70;;;9.60;;
15256;SDS011;7731;50.720;6.912;2023-02-15T11:18:20;10.77;;;9.43;;
15256;SDS011;7731;50.720;6.912;2023-02-15T11:20:59;11.65;;;10.27;;
15256;SDS011;7731;50.720;6.912;2023-02-15T11:23:40;11.05;;;9.95;;
15256;SDS011;7731;50.720;6.912;2023-02-15T11:26:17;11.80;;;10.40;;
15256;SDS011;7731;50.720;6.912;2023-02-15T11:28:57;12.35;;;10.45;;
15256;SDS011;7731;50.720;6.912;2023-02-15T11:31:41;12.13;;;10.77;;
15256;SDS011;7731;50.720;6.912;2023-02-15T11:34:17;11.65;;;10.00;;
15256;SDS011;7731;50.720;6.912;2023-02-15T11:36:57;12.20;;;10.55;;
15256;SDS011;7731;50.720;6.912;2023-02-15T11:39:41;11.90;;;10.05;;
15256;SDS011;7731;50.720;6.912;2023-02-15T11:42:18;13.07;;;10.45;;
15256;SDS011;7731;50.720;6.912;2023-02-15T11:44:56;11.70;;;10.20;;
15256;SDS011;7731;50.720;6.912;2023-02-15T11:47:36;12.85;;;10.93;;
15256;SDS011;7731;50.720;6.912;2023-02-15T11:50:10;11.57;;;10.38;;
15256;SDS011;7731;50.720;6.912;2023-02-15T11:52:44;11.57;;;10.43;;
15256;SDS011;7731;50.720;6.912;2023-02-15T11:55:18;16.38;;;11.20;;
15256;SDS011;7731;50.720;6.912;2023-02-15T11:57:53;14.88;;;11.15;;
15256;SDS011;7731;50.720;6.912;2023-02-15T12:00:32;14.43;;;12.05;;
15256;SDS011;7731;50.720;6.912;2023-02-15T12:03:11;15.90;;;13.05;;
15256;SDS011;7731;50.720;6.912;2023-02-15T12:05:51;18.77;;;15.60;;
15256;SDS011;7731;50.720;6.912;2023-02-15T12:08:30;15.05;;;11.93;;
15256;SDS011;7731;50.720;6.912;2023-02-15T12:11:15;17.33;;;12.88;;
15256;SDS011;7731;50.720;6.912;2023-02-15T12:13:55;13.95;;;12.18;;
15256;SDS011;7731;50.720;6.912;2023-02-15T12:16:28;13.65;;;11.50;;
15256;SDS011;7731;50.720;6.912;2023-02-15T12:19:03;11.63;;;10.43;;
15256;SDS011;7731;50.720;6.912;2023-02-15T12:21:34;11.95;;;10.55;;
15256;SDS011;7731;50.720;6.912;2023-02-15T12:24:13;12.73;;;11.35;;
15256;SDS011;7731;50.720;6.912;2023-02-15T12:26:58;13.15;;;11.20;;
15256;SDS011;7731;50.720;6.912;2023-02-15T12:29:34;14.70;;;11.43;;
15256;SDS011;7731;50.720;6.912;2023-02-15T12:32:11;12.57;;;10.77;;
15256;SDS011;7731;50.720;6.912;2023-02-15T12:34:48;11.88;;;10.55;;
15256;SDS011;7731;50.720;6.912;2023-02-15T12:37:23;15.90;;;11.43;;
15256;SDS011;7731;50.720;6.912;2023-02-15T12:39:58;12.63;;;10.93;;
15256;SDS011;7731;50.720;6.912;2023-02-15T12:42:43;13.07;;;11.15;;
15256;SDS011;7731;50.720;6.912;2023-02-15T12:45:21;15.30;;;11.20;;
15256;SDS011;7731;50.720;6.912;2023-02-15T12:48:09;13.82;;;11.48;;
15256;SDS011;7731;50.720;6.912;2023-02-15T12:50:45;12.88;;;9.73;;
15256;SDS011;7731;50.720;6.912;2023-02-15T12:53:30;11.23;;;10.02;;
15256;SDS011;7731;50.720;6.912;2023-02-15T12:56:03;15.00;;;10.02;;
15256;SDS011;7731;50.720;6.912;2023-02-15T12:58:39;13.45;;;10.00;;
15256;SDS011;7731;50.720;6.912;2023-02-15T13:01:14;13.68;;;10.70;;
15256;SDS011;7731;50.720;6.912;2023-02-15T13:03:54;17.50;;;9.82;;
15256;SDS011;7731;50.720;6.912;2023-02-15T13:06:31;14.27;;;10.23;;
15256;SDS011;7731;50.720;6.912;2023-02-15T13:09:06;13.35;;;10.27;;
15256;SDS011;7731;50.720;6.912;2023-02-15T13:11:45;13.65;;;10.32;;
15256;SDS011;7731;50.720;6.912;2023-02-15T13:14:21;15.32;;;10.70;;
15256;SDS011;7731;50.720;6.912;2023-02-15T13:17:02;13.90;;;10.68;;
15256;SDS011;7731;50.720;6.912;2023-02-15T13:19:35;16.98;;;11.48;;
15256;SDS011;7731;50.720;6.912;2023-02-15T13:22:19;11.13;;;9.93;;
15256;SDS011;7731;50.720;6.912;2023-02-15T13:24:56;12.55;;;10.48;;
15256;SDS011;7731;50.720;6.912;2023-02-15T13:27:32;13.27;;;10.40;;
15256;SDS011;7731;50.720;6.912;2023-02-15T13:30:16;16.58;;;10.43;;
15256;SDS011;7731;50.720;6.912;2023-02-15T13:32:56;15.50;;;11.10;;
15256;SDS011;7731;50.720;6.912;2023-02-15T13:35:36;16.40;;;13.02;;
15256;SDS011;7731;50.720;6.912;2023-02-15T13:38:20;15.05;;;11.20;;
15256;SDS011;7731;50.720;6.912;2023-02-15T13:41:13;15.32;;;10.77;;
15256;SDS011;7731;50.720;6.912;2023-02-15T13:43:52;14.30;;;10.23;;
15256;SDS011;7731;50.720;6.912;2023-02-15T13:46:54;11.93;;;9.93;;
15256;SDS011;7731;50.720;6.912;2023-02-15T13:49:56;11.98;;;10.27;;
15256;SDS011;7731;50.720;6.912;2023-02-15T13:52:51;13.52;;;10.57;;
15256;SDS011;7731;50.720;6.912;2023-02-15T13:55:43;12.90;;;10.10;;
15256;SDS011;7731;50.720;6.912;2023-02-15T13:58:27;12.70;;;10.85;;
15256;SDS011;7731;50.720;6.912;2023-02-15T14:01:24;13.40;;;10.52;;
15256;SDS011;7731;50.720;6.912;2023-02-15T14:07:42;13.68;;;10.00;;
15256;SDS011;7731;50.720;6.912;2023-02-15T14:16:33;14.00;;;9.93;;
15256;SDS011;7731;50.720;6.912;2023-02-15T14:19:37;16.15;;;10.05;;
15256;SDS011;7731;50.720;6.912;2023-02-15T14:22:21;13.68;;;8.75;;
15256;SDS011;7731;50.720;6.912;2023-02-15T14:25:14;16.95;;;9.80;;
15256;SDS011;7731;50.720;6.912;2023-02-15T14:27:58;12.30;;;9.68;;
15256;SDS011;7731;50.720;6.912;2023-02-15T14:30:37;11.82;;;9.18;;
15256;SDS011;7731;50.720;6.912;2023-02-15T14:33:16;12.15;;;9.35;;
15256;SDS011;7731;50.720;6.912;2023-02-15T14:36:02;13.02;;;9.55;;
15256;SDS011;7731;50.720;6.912;2023-02-15T14:41:58;12.20;;;8.68;;
15256;SDS011;7731;50.720;6.912;2023-02-15T14:44:36;11.63;;;8.48;;
15256;SDS011;7731;50.720;6.912;2023-02-15T14:47:18;13.35;;;8.80;;
15256;SDS011;7731;50.720;6.912;2023-02-15T14:49:56;14.50;;;9.35;;
15256;SDS011;7731;50.720;6.912;2023-02-15T14:52:26;14.30;;;9.27;;
15256;SDS011;7731;50.720;6.912;2023-02-15T14:55:00;11.27;;;8.90;;
15256;SDS011;7731;50.720;6.912;2023-02-15T14:57:32;12.20;;;9.13;;
15256;SDS011;7731;50.720;6.912;2023-02-15T15:03:11;14.30;;;9.98;;
15256;SDS011;7731;50.720;6.912;2023-02-15T15:06:02;14.18;;;10.10;;
15256;SDS011;7731;50.720;6.912;2023-02-15T15:08:36;14.45;;;9.20;;
15256;SDS011;7731;50.720;6.912;2023-02-15T15:14:42;12.95;;;9.43;;
15256;SDS011;7731;50.720;6.912;2023-02-15T15:17:13;14.73;;;9.85;;
15256;SDS011;7731;50.720;6.912;2023-02-15T15:29:03;20.80;;;10.63;;
15256;SDS011;7731;50.720;6.912;2023-02-15T15:31:48;14.98;;;11.10;;
15256;SDS011;7731;50.720;6.912;2023-02-15T15:37:51;16.80;;;9.98;;
15256;SDS011;7731;50.720;6.912;2023-02-15T15:47:26;13.23;;;9.57;;
15256;SDS011;7731;50.720;6.912;2023-02-15T15:50:21;15.77;;;11.35;;
15256;SDS011;7731;50.720;6.912;2023-02-15T15:52:52;16.10;;;11.10;;
15256;SDS011;7731;50.720;6.912;2023-02-15T15:55:27;15.93;;;10.98;;
15256;SDS011;7731;50.720;6.912;2023-02-15T15:58:05;16.27;;;11.18;;
15256;SDS011;7731;50.720;6.912;2023-02-15T16:00:46;16.45;;;11.65;;
15256;SDS011;7731;50.720;6.912;2023-02-15T16:03:20;16.40;;;10.95;;
15256;SDS011;7731;50.720;6.912;2023-02-15T16:05:53;13.45;;;10.55;;
15256;SDS011;7731;50.720;6.912;2023-02-15T16:08:29;15.70;;;11.65;;
15256;SDS011;7731;50.720;6.912;2023-02-15T16:11:16;14.98;;;12.00;;
15256;SDS011;7731;50.720;6.912;2023-02-15T16:13:53;17.70;;;12.05;;
15256;SDS011;7731;50.720;6.912;2023-02-15T16:16:27;17.27;;;11.23;;
15256;SDS011;7731;50.720;6.912;2023-02-15T16:18:58;15.65;;;11.13;;
15256;SDS011;7731;50.720;6.912;2023-02-15T16:21:29;16.27;;;11.88;;